createdAt,value
2022-08-28T00:01:15.106Z,24.10
2022-08-28T00:03:46.921Z,24.70
2022-08-28T00:06:19.017Z,23.30
2022-08-28T00:08:50.994Z,23.10
2022-08-28T00:11:23.363Z,22.90
2022-08-28T00:13:56.675Z,22.70
2022-08-28T00:16:30.615Z,23.50
2022-08-28T00:19:02.635Z,24.00
2022-08-28T00:21:34.956Z,23.00
2022-08-28T00:24:07.242Z,23.30
2022-08-28T00:26:57.364Z,25.10
2022-08-28T00:29:30.324Z,25.70
2022-08-28T00:32:02.412Z,25.30
2022-08-28T00:34:34.372Z,26.30
2022-08-28T00:37:06.760Z,26.00
2022-08-28T00:39:38.522Z,25.20
2022-08-28T00:42:10.556Z,26.00
2022-08-28T00:44:42.629Z,24.20
2022-08-28T00:47:15.160Z,23.50
2022-08-28T00:49:52.298Z,24.30
2022-08-28T00:52:26.976Z,25.00
2022-08-28T00:55:01.930Z,23.30
2022-08-28T00:57:37.207Z,24.40
2022-08-28T01:00:13.351Z,24.40
2022-08-28T01:02:45.337Z,24.30
2022-08-28T01:05:20.833Z,24.60
2022-08-28T01:07:54.127Z,24.70
2022-08-28T01:10:28.351Z,24.70
2022-08-28T01:13:01.646Z,25.50
2022-08-28T01:15:38.042Z,26.30
2022-08-28T01:18:15.660Z,26.30
2022-08-28T01:20:53.418Z,26.30
2022-08-28T01:23:40.509Z,25.80
2022-08-28T01:26:12.893Z,24.90
2022-08-28T01:28:45.648Z,26.00
2022-08-28T01:31:19.321Z,25.90
2022-08-28T01:33:51.654Z,24.30
2022-08-28T01:36:23.462Z,25.50
2022-08-28T01:39:02.522Z,23.50
2022-08-28T01:41:35.588Z,21.90
2022-08-28T01:44:07.585Z,22.90
2022-08-28T01:46:41.761Z,22.80
2022-08-28T01:49:14.670Z,22.90
2022-08-28T01:51:46.636Z,23.00
2022-08-28T01:54:20.604Z,23.30
2022-08-28T01:56:52.902Z,22.60
2022-08-28T01:59:25.242Z,23.10
2022-08-28T02:01:57.337Z,22.60
2022-08-28T02:04:32.255Z,24.30
2022-08-28T02:07:04.581Z,24.50
2022-08-28T02:09:36.790Z,24.50
2022-08-28T02:12:08.858Z,24.50
2022-08-28T02:14:41.390Z,24.20
2022-08-28T02:17:13.286Z,25.90
2022-08-28T02:19:45.148Z,24.10
2022-08-28T02:22:17.184Z,26.20
2022-08-28T02:24:49.027Z,25.80
2022-08-28T02:27:21.229Z,26.40
2022-08-28T02:29:53.264Z,24.20
2022-08-28T02:32:25.160Z,25.30
2022-08-28T02:34:57.350Z,25.50
2022-08-28T02:37:29.318Z,25.20
2022-08-28T02:40:03.153Z,24.60
2022-08-28T02:42:36.021Z,24.10
2022-08-28T02:45:11.837Z,25.30
2022-08-28T02:47:46.032Z,25.80
2022-08-28T02:50:19.996Z,25.20
2022-08-28T02:52:52.112Z,24.60
2022-08-28T02:55:25.581Z,24.70
2022-08-28T02:57:57.469Z,23.80
2022-08-28T03:00:29.335Z,23.10
2022-08-28T03:03:01.476Z,23.70
2022-08-28T03:05:33.414Z,25.90
2022-08-28T03:08:05.770Z,23.70
2022-08-28T03:10:37.618Z,24.20
2022-08-28T03:13:09.414Z,25.10
2022-08-28T03:15:46.420Z,24.20
2022-08-28T03:18:25.293Z,24.90
2022-08-28T03:20:57.626Z,23.80
2022-08-28T03:23:30.408Z,23.70
2022-08-28T03:26:05.036Z,23.50
2022-08-28T03:28:40.248Z,23.10
2022-08-28T03:31:15.350Z,24.40
2022-08-28T03:33:48.081Z,23.80
2022-08-28T03:36:24.645Z,22.80
2022-08-28T03:38:58.431Z,23.70
2022-08-28T03:41:31.615Z,23.40
2022-08-28T03:44:05.104Z,23.50
2022-08-28T03:46:37.764Z,23.00
2022-08-28T03:49:09.564Z,23.90
2022-08-28T03:51:43.917Z,24.10
2022-08-28T03:54:15.961Z,23.70
2022-08-28T03:56:47.739Z,23.60
2022-08-28T03:59:20.039Z,24.40
2022-08-28T04:01:52.518Z,26.20
2022-08-28T04:04:24.527Z,26.60
2022-08-28T04:06:57.588Z,27.50
2022-08-28T04:09:29.605Z,29.90
2022-08-28T04:12:01.645Z,32.80
2022-08-28T04:14:33.461Z,33.70
2022-08-28T04:17:05.705Z,29.00
2022-08-28T04:19:38.281Z,29.30
2022-08-28T04:22:10.164Z,29.40
2022-08-28T04:24:41.974Z,29.20
2022-08-28T04:27:14.744Z,27.20
2022-08-28T04:29:46.665Z,25.50
2022-08-28T04:32:18.794Z,23.30
2022-08-28T04:34:53.008Z,24.00
2022-08-28T04:37:25.018Z,23.20
2022-08-28T04:40:00.327Z,24.40
2022-08-28T04:42:32.626Z,25.30
2022-08-28T04:45:04.677Z,25.30
2022-08-28T04:47:39.543Z,24.40
2022-08-28T04:50:13.405Z,24.40
2022-08-28T04:52:45.232Z,24.30
2022-08-28T04:55:18.250Z,24.60
2022-08-28T04:57:57.991Z,24.30
2022-08-28T05:00:30.042Z,25.70
2022-08-28T05:03:01.814Z,24.90
2022-08-28T05:05:34.520Z,25.50
2022-08-28T05:08:06.690Z,24.50
2022-08-28T05:10:39.625Z,23.80
2022-08-28T05:13:12.699Z,25.60
2022-08-28T05:15:46.083Z,25.40
2022-08-28T05:18:20.581Z,24.30
2022-08-28T05:20:52.490Z,24.20
2022-08-28T05:23:25.700Z,19.70
2022-08-28T05:25:58.151Z,19.30
2022-08-28T05:28:30.090Z,18.80
2022-08-28T05:31:11.524Z,17.20
2022-08-28T05:33:43.442Z,16.40
2022-08-28T05:36:16.512Z,14.40
2022-08-28T05:38:48.451Z,15.00
2022-08-28T05:41:24.055Z,13.70
2022-08-28T05:43:59.647Z,14.20
2022-08-28T05:46:32.251Z,13.30
2022-08-28T05:49:09.077Z,13.20
2022-08-28T05:51:44.128Z,12.60
2022-08-28T05:54:17.016Z,13.80
2022-08-28T05:56:50.057Z,13.60
2022-08-28T05:59:21.880Z,14.50
2022-08-28T06:01:54.752Z,13.80
2022-08-28T06:04:29.068Z,13.60
2022-08-28T06:07:00.959Z,14.70
2022-08-28T06:09:33.010Z,15.30
2022-08-28T06:12:05.575Z,14.40
2022-08-28T06:14:38.357Z,14.60
2022-08-28T06:17:10.435Z,13.50
2022-08-28T06:19:42.426Z,13.90
2022-08-28T06:22:14.900Z,14.40
2022-08-28T06:24:46.846Z,16.40
2022-08-28T06:27:18.775Z,14.80
2022-08-28T06:29:50.787Z,14.10
2022-08-28T06:32:23.065Z,13.40
2022-08-28T06:34:55.217Z,13.80
2022-08-28T06:37:27.617Z,13.20
2022-08-28T06:39:59.760Z,13.80
2022-08-28T06:42:32.299Z,13.40
2022-08-28T06:45:04.205Z,13.20
2022-08-28T06:47:35.989Z,13.00
2022-08-28T06:50:09.412Z,13.30
2022-08-28T06:52:41.294Z,13.00
2022-08-28T06:55:17.067Z,13.00
2022-08-28T06:57:48.918Z,12.40
2022-08-28T07:00:21.234Z,12.70
2022-08-28T07:02:53.133Z,13.40
2022-08-28T07:05:25.502Z,13.10
2022-08-28T07:07:57.604Z,12.50
2022-08-28T07:10:31.363Z,13.80
2022-08-28T07:13:04.370Z,13.20
2022-08-28T07:15:57.969Z,12.90
2022-08-28T07:18:46.628Z,12.80
2022-08-28T07:32:17.513Z,13.10
2022-08-28T07:34:49.432Z,12.80
2022-08-28T07:37:22.333Z,13.20
2022-08-28T07:39:54.247Z,12.40
2022-08-28T07:42:44.340Z,13.20
2022-08-28T07:45:16.233Z,12.00
2022-08-28T07:47:48.500Z,12.50
2022-08-28T07:50:20.659Z,15.90
2022-08-28T07:52:52.473Z,11.90
2022-08-28T07:55:24.336Z,13.30
2022-08-28T07:57:56.791Z,11.70
2022-08-28T08:00:29.540Z,11.60
2022-08-28T08:03:01.407Z,11.60
2022-08-28T08:05:33.381Z,12.80
2022-08-28T08:08:05.683Z,12.20
2022-08-28T08:10:37.653Z,13.00
2022-08-28T08:13:09.903Z,11.90
2022-08-28T08:15:42.824Z,11.40
2022-08-28T08:18:14.888Z,13.90
2022-08-28T08:20:48.800Z,10.10
2022-08-28T08:23:20.836Z,9.40
2022-08-28T08:25:59.135Z,8.90
2022-08-28T08:28:31.290Z,9.00
2022-08-28T08:31:09.160Z,9.10
2022-08-28T08:33:43.648Z,9.40
2022-08-28T08:36:19.568Z,11.10
2022-08-28T08:38:59.967Z,9.50
2022-08-28T08:41:36.079Z,10.50
2022-08-28T08:44:11.528Z,10.50
2022-08-28T08:46:48.682Z,9.40
2022-08-28T08:49:23.220Z,8.80
2022-08-28T08:52:00.746Z,11.00
2022-08-28T08:54:32.989Z,9.50
2022-08-28T08:57:05.447Z,8.60
2022-08-28T08:59:40.249Z,10.00
2022-08-28T09:02:18.190Z,8.70
2022-08-28T09:04:56.398Z,9.10
2022-08-28T09:07:38.921Z,9.00
2022-08-28T09:10:14.399Z,9.60
2022-08-28T09:12:56.977Z,8.60
2022-08-28T09:15:33.980Z,8.80
2022-08-28T09:18:14.399Z,9.50
2022-08-28T09:20:50.405Z,8.80
2022-08-28T09:23:24.357Z,9.20
2022-08-28T09:26:01.790Z,9.70
2022-08-28T09:28:37.270Z,8.40
2022-08-28T09:31:11.434Z,8.80
2022-08-28T09:33:46.662Z,9.90
2022-08-28T09:36:29.197Z,9.00
2022-08-28T09:39:20.484Z,8.60
2022-08-28T09:42:15.900Z,8.40
2022-08-28T09:45:14.654Z,8.10
2022-08-28T09:47:50.717Z,8.30
2022-08-28T09:50:35.890Z,8.20
2022-08-28T09:53:22.425Z,8.70
2022-08-28T09:56:03.773Z,7.50
2022-08-28T09:58:39.432Z,8.10
2022-08-28T10:01:24.060Z,7.40
2022-08-28T10:04:05.614Z,8.30
2022-08-28T10:06:40.104Z,7.90
2022-08-28T10:09:26.323Z,7.70
2022-08-28T10:12:07.010Z,7.90
2022-08-28T10:14:53.881Z,8.70
2022-08-28T10:17:39.199Z,8.60
2022-08-28T10:20:19.159Z,7.80
2022-08-28T10:22:57.881Z,8.20
2022-08-28T10:25:39.012Z,7.60
2022-08-28T10:28:33.812Z,8.30
2022-08-28T10:31:12.483Z,7.50
2022-08-28T10:34:00.568Z,7.60
2022-08-28T10:36:35.301Z,8.80
2022-08-28T10:39:28.429Z,8.10
2022-08-28T10:42:04.339Z,7.10
2022-08-28T10:44:41.992Z,8.00
2022-08-28T10:47:15.256Z,7.50
2022-08-28T10:49:52.280Z,8.10
2022-08-28T10:52:29.359Z,10.70
2022-08-28T10:55:07.502Z,8.00
2022-08-28T10:57:43.120Z,8.00
2022-08-28T11:00:19.878Z,8.20
2022-08-28T11:02:57.140Z,8.40
2022-08-28T11:05:33.238Z,8.10
2022-08-28T11:08:09.984Z,8.20
2022-08-28T11:10:49.559Z,8.20
2022-08-28T11:13:44.467Z,7.60
2022-08-28T11:16:22.726Z,8.80
2022-08-28T11:19:20.781Z,8.30
2022-08-28T11:21:56.525Z,8.50
2022-08-28T11:24:41.477Z,8.40
2022-08-28T11:27:25.534Z,7.80
2022-08-28T11:30:07.099Z,8.60
2022-08-28T11:32:59.619Z,8.90
2022-08-28T11:35:52.145Z,8.30
2022-08-28T11:39:06.237Z,8.20
2022-08-28T11:41:39.834Z,11.50
2022-08-28T11:44:42.439Z,10.30
2022-08-28T11:47:56.978Z,8.40
2022-08-28T11:50:53.890Z,8.30
2022-08-28T11:53:51.750Z,9.50
2022-08-28T11:56:37.565Z,9.80
2022-08-28T11:59:41.858Z,9.10
2022-08-28T12:02:48.765Z,9.20
2022-08-28T12:05:51.940Z,10.10
2022-08-28T12:09:10.945Z,8.90
2022-08-28T12:12:00.916Z,9.20
2022-08-28T12:15:04.009Z,13.90
2022-08-28T12:17:53.929Z,10.70
2022-08-28T12:20:42.184Z,9.60
2022-08-28T12:23:38.304Z,9.10
2022-08-28T12:26:23.875Z,9.30
2022-08-28T12:28:58.635Z,9.40
2022-08-28T12:32:13.645Z,9.40
2022-08-28T12:35:17.771Z,10.10
2022-08-28T12:38:03.054Z,11.90
2022-08-28T12:40:50.526Z,13.50
2022-08-28T12:43:32.861Z,10.70
2022-08-28T12:46:19.043Z,9.90
2022-08-28T12:48:53.908Z,9.60
2022-08-28T12:51:28.976Z,10.10
2022-08-28T12:54:03.319Z,9.50
2022-08-28T12:56:38.469Z,9.60
2022-08-28T12:59:27.563Z,8.90
2022-08-28T13:02:05.674Z,9.00
2022-08-28T13:04:40.331Z,9.10
2022-08-28T13:07:15.771Z,8.70
2022-08-28T13:09:52.676Z,9.10
2022-08-28T13:12:34.899Z,9.30
2022-08-28T13:16:01.703Z,8.80
2022-08-28T13:18:53.703Z,10.40
2022-08-28T13:21:34.804Z,10.30
2022-08-28T13:24:40.963Z,9.90
2022-08-28T13:27:22.327Z,9.20
2022-08-28T13:30:05.625Z,9.40
2022-08-28T13:32:40.567Z,8.80
2022-08-28T13:35:33.849Z,9.40
2022-08-28T13:38:08.261Z,9.70
2022-08-28T13:41:03.779Z,9.40
2022-08-28T13:43:47.331Z,9.30
2022-08-28T13:46:20.231Z,10.40
2022-08-28T13:48:52.178Z,8.80
2022-08-28T13:51:26.286Z,10.20
2022-08-28T13:53:58.982Z,9.80
2022-08-28T13:56:32.786Z,10.40
2022-08-28T13:59:05.589Z,10.90
2022-08-28T14:01:55.444Z,9.50
2022-08-28T14:04:27.544Z,10.50
2022-08-28T14:06:59.574Z,10.10
2022-08-28T14:09:31.553Z,10.30
2022-08-28T14:12:04.638Z,11.20
2022-08-28T14:14:37.636Z,10.60
2022-08-28T14:17:10.922Z,11.10
2022-08-28T14:19:42.705Z,11.90
2022-08-28T14:22:14.725Z,11.70
2022-08-28T14:24:46.981Z,12.10
2022-08-28T14:27:18.868Z,11.60
2022-08-28T14:29:50.782Z,11.40
2022-08-28T14:32:22.850Z,12.10
2022-08-28T14:34:54.768Z,12.30
2022-08-28T14:37:28.565Z,11.20
2022-08-28T14:40:00.544Z,11.30
2022-08-28T14:42:32.533Z,12.00
2022-08-28T14:45:05.499Z,20.00
2022-08-28T14:47:39.381Z,14.60
2022-08-28T14:50:12.228Z,14.70
2022-08-28T14:52:44.014Z,12.40
2022-08-28T14:55:18.770Z,12.80
2022-08-28T14:57:51.357Z,12.30
2022-08-28T15:00:23.768Z,12.40
2022-08-28T15:02:59.871Z,12.70
2022-08-28T15:05:31.989Z,11.20
2022-08-28T15:08:04.469Z,11.60
2022-08-28T15:10:38.124Z,11.60
2022-08-28T15:13:11.002Z,11.80
2022-08-28T15:15:43.285Z,10.20
2022-08-28T15:18:15.293Z,11.40
2022-08-28T15:20:48.550Z,11.60
2022-08-28T15:23:20.366Z,11.50
2022-08-28T15:25:52.138Z,7.60
2022-08-28T15:28:24.036Z,6.10
2022-08-28T15:30:56.855Z,6.60
2022-08-28T15:33:28.807Z,6.80
2022-08-28T15:36:00.597Z,5.90
2022-08-28T15:38:52.713Z,6.60
2022-08-28T15:41:27.889Z,5.70
2022-08-28T15:44:01.158Z,5.10
2022-08-28T15:46:36.264Z,5.00
2022-08-28T15:49:09.696Z,4.20
2022-08-28T15:51:42.519Z,3.60
2022-08-28T15:54:14.555Z,3.00
2022-08-28T15:56:47.009Z,3.70
2022-08-28T15:59:23.701Z,3.70
2022-08-28T16:01:57.660Z,5.60
2022-08-28T16:04:29.895Z,5.60
2022-08-28T16:07:01.910Z,6.50
2022-08-28T16:09:33.932Z,6.60
2022-08-28T16:12:07.030Z,6.70
2022-08-28T16:14:38.894Z,7.70
2022-08-28T16:17:11.554Z,9.90
2022-08-28T16:19:44.160Z,9.80
2022-08-28T16:22:17.617Z,9.40
2022-08-28T16:24:50.745Z,9.50
2022-08-28T16:27:22.671Z,8.20
2022-08-28T16:29:54.549Z,8.50
2022-08-28T16:32:26.557Z,9.90
2022-08-28T16:34:59.161Z,11.50
2022-08-28T16:37:39.563Z,9.80
2022-08-28T16:40:15.004Z,9.40
2022-08-28T16:42:51.443Z,9.70
2022-08-28T16:45:24.999Z,9.60
2022-08-28T16:47:56.889Z,9.10
2022-08-28T16:50:32.456Z,9.30
2022-08-28T16:53:06.986Z,10.00
2022-08-28T16:55:40.507Z,11.10
2022-08-28T16:58:16.738Z,10.80
2022-08-28T17:00:52.721Z,10.10
2022-08-28T17:03:27.726Z,9.80
2022-08-28T17:06:03.751Z,9.40
2022-08-28T17:08:35.593Z,10.30
2022-08-28T17:11:08.334Z,10.90
2022-08-28T17:13:40.877Z,10.30
2022-08-28T17:16:13.940Z,10.20
2022-08-28T17:18:47.417Z,10.50
2022-08-28T17:21:44.865Z,10.10
2022-08-28T17:24:16.950Z,11.70
2022-08-28T17:26:48.725Z,12.00
2022-08-28T17:29:21.053Z,11.50
2022-08-28T17:31:53.340Z,13.20
2022-08-28T17:34:29.973Z,13.50
2022-08-28T17:37:02.521Z,13.40
2022-08-28T17:39:34.381Z,14.80
2022-08-28T17:42:06.628Z,14.70
2022-08-28T17:44:39.031Z,14.30
2022-08-28T17:47:12.018Z,13.80
2022-08-28T17:49:44.543Z,13.40
2022-08-28T17:52:16.626Z,14.60
2022-08-28T17:54:48.649Z,14.50
2022-08-28T17:57:21.459Z,14.20
2022-08-28T17:59:54.096Z,15.60
2022-08-28T18:02:26.588Z,14.50
2022-08-28T18:04:58.650Z,14.20
2022-08-28T18:07:34.747Z,14.60
2022-08-28T18:10:09.573Z,13.30
2022-08-28T18:12:44.328Z,13.60
2022-08-28T18:15:17.463Z,14.50
2022-08-28T18:17:50.646Z,12.90
2022-08-28T18:20:23.400Z,13.40
2022-08-28T18:22:55.523Z,14.90
2022-08-28T18:25:50.585Z,15.10
2022-08-28T18:28:28.299Z,14.10
2022-08-28T18:31:02.678Z,13.50
2022-08-28T18:33:49.988Z,13.20
2022-08-28T18:36:23.189Z,14.00
2022-08-28T18:38:55.177Z,13.50
2022-08-28T18:41:34.209Z,14.60
2022-08-28T18:44:20.149Z,12.80
2022-08-28T18:46:55.782Z,14.40
2022-08-28T18:49:28.287Z,14.30
2022-08-28T18:52:00.158Z,14.70
2022-08-28T18:54:32.551Z,14.60
2022-08-28T18:57:06.045Z,15.40
2022-08-28T18:59:40.140Z,14.80
2022-08-28T19:02:12.154Z,13.90
2022-08-28T19:04:44.890Z,11.70
2022-08-28T19:07:18.439Z,11.40
2022-08-28T19:09:51.865Z,8.90
2022-08-28T19:12:24.192Z,7.30
2022-08-28T19:14:57.644Z,7.20
2022-08-28T19:17:30.463Z,5.80
2022-08-28T19:20:10.600Z,5.00
2022-08-28T19:22:43.219Z,4.40
2022-08-28T19:25:27.447Z,3.30
2022-08-28T19:28:03.187Z,3.30
2022-08-28T19:30:36.449Z,3.10
2022-08-28T19:33:08.363Z,2.50
2022-08-28T19:35:40.292Z,2.20
2022-08-28T19:38:12.222Z,1.80
2022-08-28T19:44:38.783Z,3.00
2022-08-28T19:47:07.633Z,3.10
2022-08-28T19:49:36.713Z,3.00
2022-08-28T19:52:06.566Z,2.90
2022-08-28T19:54:37.485Z,3.50
2022-08-28T20:00:52.151Z,2.60
2022-08-28T20:03:22.120Z,2.40
2022-08-28T20:05:50.800Z,2.00
2022-08-28T20:08:20.777Z,2.00
2022-08-28T20:10:50.682Z,1.30
2022-08-28T20:13:19.203Z,1.20
2022-08-28T20:15:48.603Z,1.90
2022-08-28T20:18:17.884Z,1.40
2022-08-28T20:20:48.132Z,1.50
2022-08-28T20:23:17.906Z,1.60
2022-08-28T20:25:48.997Z,1.80
2022-08-28T20:28:18.514Z,1.60
2022-08-28T20:30:50.071Z,2.20
2022-08-28T20:33:18.727Z,1.90
2022-08-28T20:35:47.455Z,1.90
2022-08-28T20:38:15.883Z,2.00
2022-08-28T20:40:44.438Z,1.90
2022-08-28T20:43:12.896Z,2.00
2022-08-28T20:45:41.438Z,1.70
2022-08-28T20:48:09.838Z,1.40
2022-08-28T20:50:38.794Z,1.30
2022-08-28T20:53:07.329Z,2.00
2022-08-28T20:55:35.877Z,1.90
2022-08-28T20:58:04.374Z,1.10
2022-08-28T21:00:32.826Z,0.80
2022-08-28T21:03:01.439Z,0.90
2022-08-28T21:05:30.717Z,0.80
2022-08-28T21:07:59.197Z,0.90
2022-08-28T21:10:27.802Z,1.00
2022-08-28T21:12:56.465Z,1.10
2022-08-28T21:15:24.900Z,1.00
2022-08-28T21:17:53.426Z,1.10
2022-08-28T21:20:22.658Z,1.10
2022-08-28T21:22:52.879Z,1.30
2022-08-28T21:25:23.884Z,1.10
2022-08-28T21:27:53.042Z,1.40
2022-08-28T21:30:22.894Z,1.60
2022-08-28T21:32:54.013Z,1.70
2022-08-28T21:35:22.773Z,2.60
2022-08-28T21:37:54.068Z,2.20
2022-08-28T21:40:22.620Z,2.60
2022-08-28T21:42:51.263Z,3.00
2022-08-28T21:45:19.782Z,2.80
2022-08-28T21:47:48.303Z,2.80
2022-08-28T21:50:16.980Z,3.30
2022-08-28T21:52:45.413Z,3.60
2022-08-28T21:55:16.761Z,3.90
2022-08-28T21:57:45.604Z,4.60
2022-08-28T22:00:17.670Z,5.10
2022-08-28T22:02:46.498Z,5.70
2022-08-28T22:05:16.249Z,5.40
2022-08-28T22:07:44.904Z,6.90
2022-08-28T22:10:13.390Z,7.10
2022-08-28T22:12:41.812Z,7.30
2022-08-28T22:15:11.568Z,7.70
2022-08-28T22:17:40.163Z,7.70
2022-08-28T22:20:10.572Z,7.60
2022-08-28T22:22:57.606Z,7.90
2022-08-28T22:25:26.061Z,8.10
2022-08-28T22:27:54.784Z,8.00
2022-08-28T22:30:23.782Z,8.60
2022-08-28T22:32:52.752Z,8.40
2022-08-28T22:35:21.204Z,8.80
2022-08-28T22:37:49.865Z,8.40
2022-08-28T22:40:18.466Z,9.20
2022-08-28T22:42:47.113Z,9.80
2022-08-28T22:45:16.097Z,9.40
2022-08-28T22:47:44.572Z,9.20
2022-08-28T22:50:13.020Z,9.70
2022-08-28T22:52:42.658Z,9.00
2022-08-28T22:55:12.643Z,9.60
2022-08-28T22:57:41.677Z,9.20
2022-08-28T23:00:14.977Z,8.60
2022-08-28T23:02:44.268Z,9.80
2022-08-28T23:05:13.360Z,9.20
2022-08-28T23:07:42.315Z,9.20
2022-08-28T23:10:11.937Z,8.40
2022-08-28T23:12:40.745Z,8.90
2022-08-28T23:15:13.784Z,9.00
2022-08-28T23:17:43.105Z,9.90
2022-08-28T23:20:14.584Z,9.10
2022-08-28T23:22:43.757Z,8.40
2022-08-28T23:25:17.222Z,10.40
2022-08-28T23:27:46.357Z,8.60
2022-08-28T23:30:17.263Z,8.60
2022-08-28T23:32:46.010Z,8.20
2022-08-28T23:35:15.661Z,7.90
2022-08-28T23:37:48.152Z,7.30
2022-08-28T23:40:21.082Z,6.20
2022-08-28T23:42:51.445Z,7.40
2022-08-28T23:45:21.354Z,7.10
2022-08-28T23:47:50.514Z,6.40
2022-08-28T23:50:21.071Z,6.00
2022-08-28T23:52:50.481Z,6.50
2022-08-28T23:55:20.257Z,6.50
2022-08-28T23:57:52.141Z,6.30
